createdAt,value
2022-08-19T00:00:26.095Z,9.16
2022-08-19T00:01:26.286Z,9.47
2022-08-19T00:02:27.527Z,9.39
2022-08-19T00:03:24.906Z,9.45
2022-08-19T00:04:25.424Z,9.22
2022-08-19T00:05:23.896Z,9.22
2022-08-19T00:06:21.349Z,9.47
2022-08-19T00:07:19.575Z,9.55
2022-08-19T00:08:16.983Z,9.85
2022-08-19T00:09:16.942Z,9.21
2022-08-19T00:10:15.372Z,9.22
2022-08-19T00:11:18.732Z,9.29
2022-08-19T00:12:23.248Z,9.70
2022-08-19T00:13:20.673Z,10.13
2022-08-19T00:14:18.927Z,9.46
2022-08-19T00:15:17.910Z,9.82
2022-08-19T00:16:15.775Z,9.21
2022-08-19T00:17:13.715Z,9.19
2022-08-19T00:18:11.299Z,9.52
2022-08-19T00:19:09.588Z,9.59
2022-08-19T00:20:08.271Z,9.94
2022-08-19T00:21:08.649Z,9.99
2022-08-19T00:22:06.991Z,9.36
2022-08-19T00:23:04.406Z,9.26
2022-08-19T00:24:02.190Z,9.52
2022-08-19T00:24:59.602Z,9.53
2022-08-19T00:25:59.652Z,9.26
2022-08-19T00:26:57.653Z,9.63
2022-08-19T00:28:15.022Z,9.88
2022-08-19T00:29:13.878Z,9.56
2022-08-19T00:30:11.998Z,9.28
2022-08-19T00:31:10.174Z,9.76
2022-08-19T00:32:07.728Z,10.59
2022-08-19T00:33:09.270Z,9.41
2022-08-19T00:34:06.638Z,9.72
2022-08-19T00:35:04.062Z,9.16
2022-08-19T00:36:02.268Z,9.77
2022-08-19T00:36:59.739Z,9.65
2022-08-19T00:37:57.311Z,9.14
2022-08-19T00:38:54.725Z,9.33
2022-08-19T00:39:52.623Z,9.46
2022-08-19T00:40:51.264Z,9.94
2022-08-19T00:41:50.059Z,9.92
2022-08-19T00:42:48.007Z,9.08
2022-08-19T00:43:57.202Z,9.33
2022-08-19T00:44:54.585Z,9.23
2022-08-19T00:45:52.721Z,9.28
2022-08-19T00:46:57.810Z,9.22
2022-08-19T00:47:55.900Z,9.19
2022-08-19T00:48:55.013Z,8.72
2022-08-19T00:49:55.479Z,9.44
2022-08-19T00:50:54.345Z,9.87
2022-08-19T00:51:55.001Z,9.40
2022-08-19T00:52:53.356Z,9.43
2022-08-19T00:53:50.932Z,9.44
2022-08-19T00:54:52.500Z,9.61
2022-08-19T00:55:52.266Z,9.75
2022-08-19T00:56:50.804Z,9.63
2022-08-19T00:57:57.094Z,9.73
2022-08-19T00:58:57.980Z,9.56
2022-08-19T01:00:02.370Z,9.98
2022-08-19T01:01:02.833Z,9.81
2022-08-19T01:02:00.450Z,9.65
2022-08-19T01:02:58.243Z,9.54
2022-08-19T01:03:56.903Z,9.67
2022-08-19T01:04:56.829Z,9.48
2022-08-19T01:05:55.661Z,9.40
2022-08-19T01:06:52.975Z,10.29
2022-08-19T01:07:51.598Z,9.94
2022-08-19T01:08:50.137Z,9.10
2022-08-19T01:09:47.849Z,9.14
2022-08-19T01:10:50.108Z,9.16
2022-08-19T01:11:48.233Z,9.64
2022-08-19T01:12:46.653Z,8.87
2022-08-19T01:13:49.957Z,9.33
2022-08-19T01:14:48.669Z,9.82
2022-08-19T01:15:51.100Z,8.93
2022-08-19T01:16:48.749Z,9.50
2022-08-19T01:17:47.137Z,9.76
2022-08-19T01:18:44.595Z,8.78
2022-08-19T01:19:44.649Z,8.92
2022-08-19T01:20:42.946Z,9.02
2022-08-19T01:21:49.028Z,9.08
2022-08-19T01:22:49.305Z,9.01
2022-08-19T01:23:46.867Z,9.74
2022-08-19T01:24:49.734Z,9.80
2022-08-19T01:25:50.917Z,9.52
2022-08-19T01:26:48.945Z,8.97
2022-08-19T01:27:48.750Z,9.19
2022-08-19T01:28:48.755Z,9.19
2022-08-19T01:29:49.379Z,8.95
2022-08-19T01:30:51.169Z,9.58
2022-08-19T01:31:53.160Z,9.16
2022-08-19T01:32:51.673Z,9.48
2022-08-19T01:33:50.222Z,9.90
2022-08-19T01:34:48.022Z,9.69
2022-08-19T01:35:45.412Z,9.45
2022-08-19T01:36:46.619Z,8.87
2022-08-19T01:37:49.152Z,9.24
2022-08-19T01:38:47.267Z,9.78
2022-08-19T01:39:44.758Z,10.14
2022-08-19T01:40:43.278Z,9.98
2022-08-19T01:41:40.725Z,10.12
2022-08-19T01:42:38.134Z,9.32
2022-08-19T01:43:35.648Z,9.61
2022-08-19T01:44:33.024Z,9.99
2022-08-19T01:45:31.594Z,8.92
2022-08-19T01:46:29.506Z,9.90
2022-08-19T01:47:26.925Z,9.67
2022-08-19T01:48:24.667Z,9.79
2022-08-19T01:49:24.310Z,9.45
2022-08-19T01:50:21.949Z,9.68
2022-08-19T01:51:19.573Z,9.94
2022-08-19T01:52:17.083Z,9.89
2022-08-19T01:53:14.448Z,9.81
2022-08-19T01:54:13.895Z,9.34
2022-08-19T01:55:22.529Z,9.57
2022-08-19T01:56:20.886Z,9.31
2022-08-19T01:57:18.338Z,9.63
2022-08-19T01:58:21.733Z,9.90
2022-08-19T01:59:22.233Z,9.59
2022-08-19T02:00:22.935Z,9.64
2022-08-19T02:01:20.515Z,9.68
2022-08-19T02:02:17.979Z,9.94
2022-08-19T02:03:15.708Z,9.28
2022-08-19T02:04:13.109Z,9.51
2022-08-19T02:05:11.514Z,9.90
2022-08-19T02:06:09.414Z,10.21
2022-08-19T02:07:09.144Z,9.89
2022-08-19T02:08:07.667Z,10.17
2022-08-19T02:09:06.354Z,10.41
2022-08-19T02:10:08.896Z,9.82
2022-08-19T02:11:09.709Z,9.58
2022-08-19T02:12:09.046Z,9.93
2022-08-19T02:13:06.374Z,10.29
2022-08-19T02:14:06.717Z,10.46
2022-08-19T02:15:04.778Z,10.31
2022-08-19T02:16:04.379Z,10.05
2022-08-19T02:17:02.169Z,10.18
2022-08-19T02:18:00.283Z,10.13
2022-08-19T02:18:59.052Z,9.78
2022-08-19T02:19:57.522Z,9.28
2022-08-19T02:20:55.065Z,9.47
2022-08-19T02:21:52.619Z,10.11
2022-08-19T02:22:49.943Z,10.43
2022-08-19T02:23:47.487Z,10.11
2022-08-19T02:24:44.857Z,9.99
2022-08-19T02:25:43.714Z,9.97
2022-08-19T02:26:41.117Z,9.52
2022-08-19T02:27:38.745Z,10.52
2022-08-19T02:28:36.127Z,10.20
2022-08-19T02:29:33.494Z,10.52
2022-08-19T02:30:31.481Z,11.27
2022-08-19T02:31:29.114Z,10.09
2022-08-19T02:32:26.470Z,10.88
2022-08-19T02:33:23.932Z,10.55
2022-08-19T02:34:21.374Z,10.66
2022-08-19T02:35:19.093Z,10.59
2022-08-19T02:36:21.138Z,10.53
2022-08-19T02:37:37.105Z,10.91
2022-08-19T02:38:36.243Z,11.50
2022-08-19T02:39:33.643Z,10.71
2022-08-19T02:40:35.352Z,10.82
2022-08-19T02:41:34.377Z,10.71
2022-08-19T02:42:32.376Z,11.46
2022-08-19T02:43:32.226Z,10.77
2022-08-19T02:44:32.176Z,10.83
2022-08-19T02:45:33.694Z,11.30
2022-08-19T02:46:32.201Z,11.39
2022-08-19T02:47:29.568Z,10.65
2022-08-19T02:48:27.016Z,10.70
2022-08-19T02:49:24.624Z,10.78
2022-08-19T02:50:22.680Z,10.48
2022-08-19T02:51:22.117Z,9.85
2022-08-19T02:52:19.571Z,10.05
2022-08-19T02:53:16.973Z,10.37
2022-08-19T02:54:15.679Z,10.31
2022-08-19T02:55:13.078Z,10.42
2022-08-19T02:56:10.455Z,10.08
2022-08-19T02:57:08.850Z,10.78
2022-08-19T02:58:06.542Z,10.60
2022-08-19T02:59:11.431Z,9.71
2022-08-19T03:00:13.249Z,10.02
2022-08-19T03:01:11.596Z,9.72
2022-08-19T03:02:08.970Z,9.44
2022-08-19T03:03:06.351Z,10.19
2022-08-19T03:04:05.759Z,9.76
2022-08-19T03:05:04.239Z,10.04
2022-08-19T03:06:09.259Z,9.47
2022-08-19T03:07:09.308Z,9.87
2022-08-19T03:08:09.502Z,9.22
2022-08-19T03:09:07.024Z,9.59
2022-08-19T03:10:05.329Z,9.82
2022-08-19T03:11:02.839Z,9.43
2022-08-19T03:12:00.191Z,9.24
2022-08-19T03:12:57.552Z,9.05
2022-08-19T03:13:55.371Z,9.47
2022-08-19T03:14:53.721Z,9.45
2022-08-19T03:15:51.061Z,9.78
2022-08-19T03:16:50.341Z,9.60
2022-08-19T03:17:47.743Z,10.40
2022-08-19T03:18:46.072Z,9.74
2022-08-19T03:19:44.180Z,9.61
2022-08-19T03:20:49.901Z,9.52
2022-08-19T03:21:47.382Z,9.74
2022-08-19T03:22:44.738Z,9.35
2022-08-19T03:23:42.112Z,9.66
2022-08-19T03:24:39.875Z,9.50
2022-08-19T03:25:39.065Z,9.71
2022-08-19T03:26:40.238Z,9.95
2022-08-19T03:27:37.636Z,9.64
2022-08-19T03:28:35.189Z,10.05
2022-08-19T03:29:33.081Z,9.98
2022-08-19T03:30:43.550Z,10.41
2022-08-19T03:31:52.681Z,9.98
2022-08-19T03:32:51.376Z,9.68
2022-08-19T03:33:54.372Z,10.39
2022-08-19T03:34:53.833Z,10.34
2022-08-19T03:36:05.098Z,10.02
2022-08-19T03:37:06.497Z,9.99
2022-08-19T03:38:07.503Z,9.38
2022-08-19T03:39:05.345Z,10.28
2022-08-19T03:40:05.088Z,10.16
2022-08-19T03:41:10.384Z,10.57
2022-08-19T03:42:32.635Z,10.66
2022-08-19T03:43:25.644Z,11.01
2022-08-19T03:44:23.716Z,10.55
2022-08-19T03:45:21.156Z,10.51
2022-08-19T03:46:21.576Z,10.99
2022-08-19T03:47:19.289Z,10.82
2022-08-19T03:48:18.340Z,10.74
2022-08-19T03:49:18.412Z,10.71
2022-08-19T03:50:16.421Z,10.27
2022-08-19T03:51:18.511Z,9.76
2022-08-19T03:52:28.337Z,11.19
2022-08-19T03:53:27.321Z,10.67
2022-08-19T03:54:26.314Z,10.37
2022-08-19T03:55:23.650Z,10.42
2022-08-19T03:56:21.758Z,10.22
2022-08-19T03:57:19.200Z,11.01
2022-08-19T03:58:16.630Z,11.07
2022-08-19T03:59:16.888Z,11.20
2022-08-19T04:00:14.558Z,10.63
2022-08-19T04:01:14.636Z,13.26
2022-08-19T04:02:12.892Z,12.90
2022-08-19T04:03:10.328Z,13.25
2022-08-19T04:04:07.857Z,13.59
2022-08-19T04:05:09.123Z,12.95
2022-08-19T04:06:13.672Z,12.07
2022-08-19T04:07:11.996Z,12.40
2022-08-19T04:08:13.693Z,12.51
2022-08-19T04:09:12.042Z,12.03
2022-08-19T04:10:10.632Z,12.38
2022-08-19T04:11:12.410Z,11.35
2022-08-19T04:12:09.816Z,11.85
2022-08-19T04:13:08.143Z,11.59
2022-08-19T04:14:05.644Z,11.32
2022-08-19T04:15:03.510Z,11.67
2022-08-19T04:16:01.380Z,10.99
2022-08-19T04:17:00.323Z,11.79
2022-08-19T04:17:57.787Z,12.17
2022-08-19T04:18:56.741Z,11.07
2022-08-19T04:19:54.386Z,11.04
2022-08-19T04:20:53.229Z,11.44
2022-08-19T04:21:53.048Z,10.86
2022-08-19T04:22:50.429Z,11.40
2022-08-19T04:23:48.606Z,11.77
2022-08-19T04:24:46.035Z,10.97
2022-08-19T04:25:44.754Z,11.49
2022-08-19T04:26:42.445Z,11.71
2022-08-19T04:27:39.839Z,10.75
2022-08-19T04:28:37.783Z,11.49
2022-08-19T04:29:35.335Z,10.94
2022-08-19T04:30:38.354Z,11.70
2022-08-19T04:31:36.814Z,11.20
2022-08-19T04:32:34.378Z,11.01
2022-08-19T04:33:31.890Z,10.62
2022-08-19T04:34:30.568Z,10.94
2022-08-19T04:35:27.962Z,11.22
2022-08-19T04:36:27.138Z,11.41
2022-08-19T04:37:25.736Z,11.22
2022-08-19T04:38:25.805Z,10.29
2022-08-19T04:39:45.105Z,10.86
2022-08-19T04:41:02.459Z,11.10
2022-08-19T04:42:18.290Z,11.37
2022-08-19T04:43:16.670Z,10.87
2022-08-19T04:44:14.229Z,10.59
2022-08-19T04:45:14.350Z,11.16
2022-08-19T04:46:13.102Z,11.41
2022-08-19T04:47:48.241Z,11.31
2022-08-19T04:48:49.697Z,9.92
2022-08-19T04:49:47.200Z,10.76
2022-08-19T04:50:44.941Z,10.12
2022-08-19T04:51:44.404Z,10.88
2022-08-19T04:52:44.750Z,10.60
2022-08-19T04:53:42.946Z,10.22
2022-08-19T04:54:40.328Z,10.76
2022-08-19T04:55:42.619Z,10.89
2022-08-19T04:56:40.296Z,10.84
2022-08-19T04:57:41.134Z,10.91
2022-08-19T04:58:39.998Z,10.68
2022-08-19T04:59:37.748Z,10.72
2022-08-19T05:00:35.241Z,10.36
2022-08-19T05:01:37.493Z,10.34
2022-08-19T05:02:35.003Z,10.49
2022-08-19T05:03:34.576Z,10.26
2022-08-19T05:04:33.858Z,10.35
2022-08-19T05:05:32.179Z,10.88
2022-08-19T05:06:43.386Z,10.54
2022-08-19T05:07:41.787Z,10.51
2022-08-19T05:08:44.252Z,10.43
2022-08-19T05:09:58.051Z,10.46
2022-08-19T05:10:56.602Z,10.36
2022-08-19T05:11:54.528Z,10.73
2022-08-19T05:12:52.059Z,10.93
2022-08-19T05:13:49.983Z,10.47
2022-08-19T05:14:48.222Z,10.34
2022-08-19T05:15:45.798Z,10.72
2022-08-19T05:16:43.148Z,10.87
2022-08-19T05:18:00.552Z,10.89
2022-08-19T05:19:16.548Z,11.40
2022-08-19T05:20:32.203Z,11.43
2022-08-19T05:21:48.976Z,11.01
2022-08-19T05:22:47.728Z,10.64
2022-08-19T05:23:45.438Z,10.88
2022-08-19T05:25:02.416Z,12.16
2022-08-19T05:26:00.350Z,11.63
2022-08-19T05:26:57.909Z,11.11
2022-08-19T05:27:55.402Z,10.97
2022-08-19T05:28:54.646Z,11.32
2022-08-19T05:29:52.263Z,11.04
2022-08-19T05:30:51.683Z,11.39
2022-08-19T05:31:52.808Z,11.46
2022-08-19T05:32:50.329Z,10.87
2022-08-19T05:33:51.763Z,10.67
2022-08-19T05:34:49.200Z,10.79
2022-08-19T05:35:47.222Z,11.04
2022-08-19T05:36:46.245Z,10.82
2022-08-19T05:37:43.650Z,10.31
2022-08-19T05:38:41.345Z,10.36
2022-08-19T05:39:39.136Z,10.67
2022-08-19T05:40:39.664Z,10.50
2022-08-19T05:41:37.487Z,10.38
2022-08-19T05:42:34.861Z,9.93
2022-08-19T05:43:32.328Z,10.87
2022-08-19T05:44:34.592Z,11.14
2022-08-19T05:45:32.050Z,10.93
2022-08-19T05:46:29.558Z,10.75
2022-08-19T05:47:26.944Z,10.77
2022-08-19T05:48:24.392Z,10.38
2022-08-19T05:49:23.438Z,10.60
2022-08-19T05:50:21.025Z,10.41
2022-08-19T05:51:18.444Z,10.05
2022-08-19T05:52:18.906Z,10.24
2022-08-19T05:53:17.356Z,10.20
2022-08-19T05:54:14.935Z,10.48
2022-08-19T05:55:12.451Z,10.12
2022-08-19T05:56:12.873Z,10.21
2022-08-19T05:57:13.282Z,11.41
2022-08-19T05:58:10.958Z,11.04
2022-08-19T05:59:11.658Z,10.07
2022-08-19T06:00:11.699Z,10.99
2022-08-19T06:01:14.783Z,10.66
2022-08-19T06:02:12.291Z,10.52
2022-08-19T06:03:12.728Z,10.48
2022-08-19T06:04:10.911Z,10.07
2022-08-19T06:05:10.141Z,10.38
2022-08-19T06:06:09.950Z,9.86
2022-08-19T06:07:12.689Z,10.11
2022-08-19T06:08:10.395Z,10.62
2022-08-19T06:09:08.688Z,10.05
2022-08-19T06:10:11.610Z,10.18
2022-08-19T06:11:17.036Z,10.41
2022-08-19T06:12:14.384Z,10.43
2022-08-19T06:13:11.756Z,10.53
2022-08-19T06:14:16.710Z,10.92
2022-08-19T06:15:15.138Z,10.22
2022-08-19T06:16:12.541Z,10.36
2022-08-19T06:17:09.928Z,9.94
2022-08-19T06:18:07.361Z,10.31
2022-08-19T06:19:07.404Z,10.89
2022-08-19T06:20:05.753Z,11.00
2022-08-19T06:21:05.029Z,10.36
2022-08-19T06:22:02.582Z,10.27
2022-08-19T06:23:00.168Z,10.65
2022-08-19T06:23:58.199Z,10.76
2022-08-19T06:24:56.347Z,10.71
2022-08-19T06:25:53.753Z,10.48
2022-08-19T06:26:56.722Z,10.75
2022-08-19T06:28:14.139Z,10.67
2022-08-19T06:29:23.952Z,11.16
2022-08-19T06:30:21.555Z,10.11
2022-08-19T06:31:21.545Z,10.66
2022-08-19T06:32:20.161Z,10.52
2022-08-19T06:33:17.674Z,9.90
2022-08-19T06:34:16.620Z,11.22
2022-08-19T06:35:15.512Z,10.77
2022-08-19T06:36:25.271Z,10.94
2022-08-19T06:37:23.767Z,10.36
2022-08-19T06:38:23.553Z,10.30
2022-08-19T06:39:23.007Z,10.32
2022-08-19T06:40:20.499Z,10.22
2022-08-19T06:41:17.965Z,10.06
2022-08-19T06:42:18.209Z,10.04
2022-08-19T06:43:16.853Z,10.31
2022-08-19T06:44:16.595Z,10.38
2022-08-19T06:45:14.420Z,10.49
2022-08-19T06:46:16.179Z,11.15
2022-08-19T06:47:23.474Z,10.60
2022-08-19T06:48:22.743Z,10.53
2022-08-19T06:49:24.600Z,10.70
2022-08-19T06:50:22.971Z,11.36
2022-08-19T06:51:23.302Z,10.68
2022-08-19T06:52:22.627Z,10.74
2022-08-19T06:53:20.301Z,10.88
2022-08-19T06:54:20.335Z,10.58
2022-08-19T06:55:18.432Z,10.71
2022-08-19T06:56:18.120Z,10.66
2022-08-19T06:57:16.189Z,9.93
2022-08-19T06:58:13.935Z,9.96
2022-08-19T06:59:15.221Z,9.98
2022-08-19T07:00:14.295Z,10.55
2022-08-19T07:01:11.957Z,10.47
2022-08-19T07:02:09.663Z,10.19
2022-08-19T07:03:08.788Z,10.29
2022-08-19T07:04:07.965Z,10.17
2022-08-19T07:05:09.594Z,10.66
2022-08-19T07:06:21.344Z,11.02
2022-08-19T07:07:29.436Z,10.14
2022-08-19T07:08:29.359Z,10.76
2022-08-19T07:09:28.038Z,10.10
2022-08-19T07:10:27.978Z,10.20
2022-08-19T07:11:25.510Z,10.57
2022-08-19T07:12:22.934Z,9.98
2022-08-19T07:13:20.317Z,10.03
2022-08-19T07:14:19.866Z,9.92
2022-08-19T07:15:17.794Z,9.85
2022-08-19T07:16:20.318Z,9.15
2022-08-19T07:17:27.090Z,9.29
2022-08-19T07:18:24.540Z,9.19
2022-08-19T07:19:28.254Z,10.06
2022-08-19T07:20:28.575Z,9.61
2022-08-19T07:21:29.482Z,9.48
2022-08-19T07:22:27.122Z,9.30
2022-08-19T07:23:24.485Z,9.42
2022-08-19T07:24:24.873Z,9.46
2022-08-19T07:25:22.919Z,9.42
2022-08-19T07:26:32.069Z,9.78
2022-08-19T07:27:29.480Z,9.34
2022-08-19T07:28:31.332Z,10.12
2022-08-19T07:29:31.533Z,9.40
2022-08-19T07:30:28.966Z,9.35
2022-08-19T07:31:28.702Z,9.25
2022-08-19T07:32:28.943Z,9.38
2022-08-19T07:33:28.028Z,9.29
2022-08-19T07:34:27.011Z,9.27
2022-08-19T07:35:24.682Z,9.42
2022-08-19T07:36:33.287Z,8.94
2022-08-19T07:37:33.390Z,8.96
2022-08-19T07:38:31.019Z,8.64
2022-08-19T07:39:30.685Z,9.19
2022-08-19T07:40:28.148Z,8.83
2022-08-19T07:41:27.645Z,8.68
2022-08-19T07:42:25.032Z,9.10
2022-08-19T07:43:26.273Z,9.06
2022-08-19T07:44:32.615Z,8.97
2022-08-19T07:45:30.347Z,8.93
2022-08-19T07:46:27.934Z,8.51
2022-08-19T07:47:48.810Z,8.54
2022-08-19T07:48:45.165Z,8.46
2022-08-19T07:49:43.295Z,8.91
2022-08-19T07:50:40.753Z,8.99
2022-08-19T07:51:38.101Z,9.01
2022-08-19T07:52:37.269Z,8.39
2022-08-19T07:53:39.633Z,8.77
2022-08-19T07:54:39.070Z,8.57
2022-08-19T07:55:42.550Z,8.93
2022-08-19T07:56:41.118Z,8.36
2022-08-19T07:57:39.876Z,8.26
2022-08-19T07:58:39.421Z,7.99
2022-08-19T07:59:37.646Z,8.67
2022-08-19T08:00:36.887Z,8.09
2022-08-19T08:01:34.442Z,8.82
2022-08-19T08:02:40.235Z,8.60
2022-08-19T08:03:56.729Z,8.29
2022-08-19T08:05:12.494Z,8.44
2022-08-19T08:06:30.213Z,8.64
2022-08-19T08:07:46.635Z,8.69
2022-08-19T08:09:02.368Z,9.08
2022-08-19T08:10:06.191Z,8.36
2022-08-19T08:11:12.094Z,8.12
2022-08-19T08:12:33.550Z,8.86
2022-08-19T08:13:31.973Z,9.05
2022-08-19T08:14:37.836Z,8.71
2022-08-19T08:15:42.876Z,8.26
2022-08-19T08:16:46.938Z,8.31
2022-08-19T08:17:49.227Z,8.35
2022-08-19T08:18:50.573Z,8.27
2022-08-19T08:19:51.912Z,8.22
2022-08-19T08:20:49.338Z,8.10
2022-08-19T08:21:46.745Z,8.17
2022-08-19T08:23:03.941Z,8.08
2022-08-19T08:25:08.682Z,7.86
2022-08-19T08:26:06.523Z,7.41
2022-08-19T08:27:11.360Z,7.55
2022-08-19T08:28:11.409Z,7.42
2022-08-19T08:29:16.564Z,7.66
2022-08-19T08:30:18.071Z,7.76
2022-08-19T08:31:16.206Z,7.48
2022-08-19T08:32:14.241Z,7.03
2022-08-19T08:33:13.272Z,7.46
2022-08-19T08:34:12.334Z,7.57
2022-08-19T08:35:13.563Z,6.83
2022-08-19T08:36:12.134Z,6.94
2022-08-19T08:37:09.668Z,6.71
2022-08-19T08:38:07.159Z,6.58
2022-08-19T08:39:05.917Z,6.58
2022-08-19T08:40:12.974Z,6.85
2022-08-19T08:41:30.928Z,6.27
2022-08-19T08:42:32.767Z,6.37
2022-08-19T08:43:33.641Z,6.64
2022-08-19T08:44:48.254Z,6.08
2022-08-19T08:45:53.458Z,7.16
2022-08-19T08:46:56.737Z,6.90
2022-08-19T08:47:58.691Z,6.99
2022-08-19T08:48:58.956Z,6.65
2022-08-19T08:50:15.829Z,6.52
2022-08-19T08:51:20.122Z,6.60
2022-08-19T08:52:31.945Z,6.41
2022-08-19T08:53:34.434Z,6.90
2022-08-19T08:54:41.567Z,6.64
2022-08-19T08:55:52.674Z,6.82
2022-08-19T08:56:51.539Z,7.04
2022-08-19T08:57:49.697Z,7.30
2022-08-19T08:58:54.298Z,6.68
2022-08-19T08:59:55.660Z,6.50
2022-08-19T09:00:53.405Z,6.63
2022-08-19T09:01:50.894Z,6.73
2022-08-19T09:02:50.594Z,6.83
2022-08-19T09:03:48.748Z,7.09
2022-08-19T09:04:49.518Z,6.92
2022-08-19T09:06:01.908Z,6.70
2022-08-19T09:07:06.911Z,6.73
2022-08-19T09:08:25.181Z,7.10
2022-08-19T09:09:35.901Z,7.09
2022-08-19T09:10:44.268Z,6.82
2022-08-19T09:11:45.045Z,7.22
2022-08-19T09:13:09.433Z,7.23
2022-08-19T09:14:47.330Z,6.86
2022-08-19T09:15:45.556Z,7.31
2022-08-19T09:16:44.984Z,7.36
2022-08-19T09:17:42.577Z,7.00
2022-08-19T09:18:44.969Z,6.62
2022-08-19T09:19:56.962Z,6.66
2022-08-19T09:20:54.373Z,6.81
2022-08-19T09:21:51.874Z,6.93
2022-08-19T09:22:50.282Z,7.37
2022-08-19T09:23:47.768Z,6.95
2022-08-19T09:24:53.174Z,7.30
2022-08-19T09:25:50.598Z,6.94
2022-08-19T09:26:52.662Z,6.97
2022-08-19T09:27:51.640Z,6.72
2022-08-19T09:28:50.226Z,6.89
2022-08-19T09:29:49.566Z,6.95
2022-08-19T09:30:47.520Z,6.72
2022-08-19T09:31:44.938Z,6.80
2022-08-19T09:32:43.812Z,6.85
2022-08-19T09:33:42.081Z,6.11
2022-08-19T09:34:39.521Z,6.47
2022-08-19T09:35:49.942Z,6.18
2022-08-19T09:36:54.273Z,6.73
2022-08-19T09:37:57.729Z,6.14
2022-08-19T09:38:57.246Z,6.76
2022-08-19T09:39:56.453Z,6.52
2022-08-19T09:40:53.904Z,5.92
2022-08-19T09:41:51.339Z,6.40
2022-08-19T09:42:48.877Z,6.74
2022-08-19T09:43:50.234Z,6.45
2022-08-19T09:44:48.081Z,6.06
2022-08-19T09:45:45.460Z,6.05
2022-08-19T09:46:42.841Z,6.40
2022-08-19T09:47:40.599Z,6.04
2022-08-19T09:48:39.119Z,5.69
2022-08-19T09:49:36.716Z,5.41
2022-08-19T09:50:51.885Z,5.84
2022-08-19T09:51:54.824Z,6.03
2022-08-19T09:52:57.411Z,6.49
2022-08-19T09:53:55.890Z,6.23
2022-08-19T09:54:54.394Z,6.26
2022-08-19T09:55:51.835Z,6.16
2022-08-19T09:56:49.889Z,6.23
2022-08-19T09:57:47.312Z,6.38
2022-08-19T09:58:44.722Z,6.60
2022-08-19T09:59:42.188Z,6.04
2022-08-19T10:00:40.020Z,6.56
2022-08-19T10:01:37.418Z,6.34
2022-08-19T10:02:35.262Z,5.92
2022-08-19T10:03:33.546Z,6.07
2022-08-19T10:05:06.143Z,5.91
2022-08-19T10:06:05.838Z,5.72
2022-08-19T10:07:12.733Z,6.44
2022-08-19T10:08:13.096Z,5.95
2022-08-19T10:09:11.908Z,6.45
2022-08-19T10:10:10.346Z,6.50
2022-08-19T10:11:28.021Z,5.96
2022-08-19T10:12:25.067Z,5.98
2022-08-19T10:13:27.094Z,6.28
2022-08-19T10:14:24.676Z,5.72
2022-08-19T10:15:29.216Z,6.44
2022-08-19T10:16:30.402Z,6.27
2022-08-19T10:17:33.394Z,6.08
2022-08-19T10:18:31.294Z,6.11
2022-08-19T10:19:31.107Z,6.37
2022-08-19T10:20:29.740Z,6.36
2022-08-19T10:21:28.974Z,6.20
2022-08-19T10:22:29.631Z,6.20
2022-08-19T10:23:30.655Z,6.21
2022-08-19T10:24:31.823Z,6.22
2022-08-19T10:25:29.225Z,5.71
2022-08-19T10:26:29.507Z,6.04
2022-08-19T10:27:26.961Z,6.07
2022-08-19T10:28:25.105Z,6.20
2022-08-19T10:29:32.628Z,6.19
2022-08-19T10:30:30.934Z,6.39
2022-08-19T10:32:00.534Z,6.14
2022-08-19T10:32:48.314Z,6.16
2022-08-19T10:33:54.162Z,6.14
2022-08-19T10:34:52.948Z,6.36
2022-08-19T10:36:18.615Z,6.38
2022-08-19T10:37:28.943Z,5.86
2022-08-19T10:38:31.759Z,6.10
2022-08-19T10:39:31.686Z,6.65
2022-08-19T10:40:31.146Z,6.31
2022-08-19T10:41:30.320Z,6.49
2022-08-19T10:42:27.835Z,6.17
2022-08-19T10:43:26.005Z,6.31
2022-08-19T10:44:24.327Z,6.63
2022-08-19T10:45:26.731Z,6.58
2022-08-19T10:46:26.938Z,5.47
2022-08-19T10:47:25.685Z,6.13
2022-08-19T10:48:23.649Z,6.12
2022-08-19T10:49:21.605Z,6.28
2022-08-19T10:50:39.531Z,6.25
2022-08-19T10:51:55.407Z,6.59
2022-08-19T10:52:53.559Z,6.38
2022-08-19T10:53:53.811Z,6.22
2022-08-19T10:55:09.548Z,5.94
2022-08-19T10:56:25.336Z,6.12
2022-08-19T10:57:30.296Z,6.05
2022-08-19T10:58:34.332Z,6.28
2022-08-19T10:59:35.979Z,6.32
2022-08-19T11:00:33.688Z,6.09
2022-08-19T11:01:34.164Z,6.98
2022-08-19T11:02:33.801Z,6.84
2022-08-19T11:03:31.699Z,6.37
2022-08-19T11:04:29.573Z,6.32
2022-08-19T11:05:27.134Z,6.55
2022-08-19T11:06:26.233Z,6.50
2022-08-19T11:07:26.215Z,6.70
2022-08-19T11:08:25.356Z,6.50
2022-08-19T11:09:33.990Z,6.35
2022-08-19T11:10:31.982Z,6.93
2022-08-19T11:11:29.810Z,6.20
2022-08-19T11:12:29.677Z,6.30
2022-08-19T11:13:27.980Z,5.74
2022-08-19T11:14:26.377Z,6.90
2022-08-19T11:15:24.831Z,6.33
2022-08-19T11:16:27.679Z,6.82
2022-08-19T11:17:25.147Z,6.19
2022-08-19T11:18:22.477Z,6.64
2022-08-19T11:19:20.197Z,6.61
2022-08-19T11:20:17.544Z,6.71
2022-08-19T11:21:21.124Z,6.65
2022-08-19T11:22:19.536Z,6.35
2022-08-19T11:23:16.982Z,6.54
2022-08-19T11:24:16.367Z,6.42
2022-08-19T11:25:14.312Z,6.43
2022-08-19T11:26:12.123Z,6.93
2022-08-19T11:27:11.097Z,6.82
2022-08-19T11:28:08.481Z,6.46
2022-08-19T11:29:07.304Z,6.45
2022-08-19T11:30:04.990Z,6.77
2022-08-19T11:31:10.313Z,6.23
2022-08-19T11:32:13.910Z,6.72
2022-08-19T11:33:11.926Z,6.76
2022-08-19T11:34:11.495Z,5.94
2022-08-19T11:35:09.446Z,6.10
2022-08-19T11:36:08.810Z,6.29
2022-08-19T11:37:08.128Z,6.54
2022-08-19T11:38:09.733Z,6.90
2022-08-19T11:39:10.748Z,6.77
2022-08-19T11:40:13.239Z,6.59
2022-08-19T11:41:11.350Z,6.78
2022-08-19T11:42:27.329Z,6.22
2022-08-19T11:43:26.008Z,6.30
2022-08-19T11:44:23.706Z,6.32
2022-08-19T11:45:21.119Z,6.51
2022-08-19T11:46:18.688Z,6.29
2022-08-19T11:47:17.571Z,6.38
2022-08-19T11:48:16.362Z,6.55
2022-08-19T11:49:15.006Z,6.58
2022-08-19T11:50:12.388Z,6.42
2022-08-19T11:51:14.315Z,6.23
2022-08-19T11:52:13.939Z,6.49
2022-08-19T11:53:13.177Z,6.52
2022-08-19T11:54:14.118Z,6.32
2022-08-19T11:55:12.115Z,6.65
2022-08-19T11:56:11.161Z,6.79
2022-08-19T11:57:08.553Z,6.33
2022-08-19T11:58:07.958Z,6.37
2022-08-19T11:59:17.031Z,6.48
2022-08-19T12:00:14.715Z,6.15
2022-08-19T12:01:13.275Z,6.52
2022-08-19T12:02:12.174Z,6.16
2022-08-19T12:03:09.904Z,6.62
2022-08-19T12:04:07.549Z,6.60
2022-08-19T12:05:09.021Z,6.18
2022-08-19T12:06:10.879Z,6.44
2022-08-19T12:07:08.358Z,6.52
2022-08-19T12:08:05.915Z,6.43
2022-08-19T12:09:05.964Z,7.13
2022-08-19T12:10:26.315Z,6.90
2022-08-19T12:11:24.388Z,6.54
2022-08-19T12:12:23.053Z,6.02
2022-08-19T12:13:20.455Z,6.70
2022-08-19T12:14:18.076Z,6.39
2022-08-19T12:15:16.098Z,6.49
2022-08-19T12:16:16.013Z,6.68
2022-08-19T12:17:14.393Z,6.67
2022-08-19T12:18:12.226Z,6.15
2022-08-19T12:19:09.602Z,6.26
2022-08-19T12:20:08.041Z,6.65
2022-08-19T12:21:05.774Z,6.61
2022-08-19T12:22:04.138Z,6.13
2022-08-19T12:23:01.570Z,6.85
2022-08-19T12:24:00.429Z,6.62
2022-08-19T12:24:57.786Z,6.64
2022-08-19T12:25:55.705Z,6.76
2022-08-19T12:26:54.365Z,6.30
2022-08-19T12:27:57.330Z,6.39
2022-08-19T12:28:55.167Z,6.62
2022-08-19T12:29:52.546Z,6.37
2022-08-19T12:30:52.070Z,6.83
2022-08-19T12:31:49.477Z,7.20
2022-08-19T12:32:46.943Z,6.90
2022-08-19T12:33:44.784Z,6.61
2022-08-19T12:34:42.446Z,6.96
2022-08-19T12:35:45.680Z,6.76
2022-08-19T12:36:43.302Z,6.76
2022-08-19T12:37:45.584Z,6.56
2022-08-19T12:38:54.914Z,6.19
2022-08-19T12:39:52.360Z,6.29
2022-08-19T12:40:50.437Z,6.70
2022-08-19T12:41:51.517Z,6.60
2022-08-19T12:42:52.300Z,6.97
2022-08-19T12:43:50.824Z,6.52
2022-08-19T12:44:49.211Z,6.15
2022-08-19T12:45:47.059Z,6.16
2022-08-19T12:46:44.552Z,6.29
2022-08-19T12:47:42.287Z,6.51
2022-08-19T12:48:45.671Z,6.83
2022-08-19T12:49:54.438Z,6.87
2022-08-19T12:50:52.790Z,6.26
2022-08-19T12:51:50.269Z,6.20
2022-08-19T12:52:48.146Z,6.60
2022-08-19T12:53:45.639Z,6.53
2022-08-19T12:54:44.203Z,6.02
2022-08-19T12:55:42.212Z,9.06
2022-08-19T12:56:39.714Z,6.53
2022-08-19T12:57:37.172Z,6.30
2022-08-19T12:58:35.550Z,6.26
2022-08-19T12:59:32.915Z,6.53
2022-08-19T13:00:31.185Z,6.07
2022-08-19T13:01:33.713Z,6.10
2022-08-19T13:02:33.111Z,6.35
2022-08-19T13:03:40.574Z,6.26
2022-08-19T13:04:41.666Z,6.51
2022-08-19T13:05:39.054Z,6.88
2022-08-19T13:06:37.122Z,6.70
2022-08-19T13:07:34.647Z,6.30
2022-08-19T13:08:32.121Z,6.43
2022-08-19T13:09:29.513Z,6.57
2022-08-19T13:10:35.921Z,6.75
2022-08-19T13:11:34.730Z,6.78
2022-08-19T13:12:32.117Z,6.34
2022-08-19T13:13:29.493Z,5.77
2022-08-19T13:14:26.968Z,6.42
2022-08-19T13:15:24.593Z,6.47
2022-08-19T13:16:22.936Z,6.31
2022-08-19T13:17:21.074Z,6.44